NWS Home NWS Lubbock West Texas Mesonet                      Daily Summary For 11/25/2020

Latest   N   C   S   Daily Sum   3hrΔ   24hrΔ   Soil Data 
Site Map   24hr Precip   72hr Precip   Google Plot


Station Time of Last Max Temp Min Temp Max/Min Dew Pt. Max/Min RH 10m Avg Wind 2m Avg Wind Peak Gust @ 33ft (mph) Potential Evapotranspiration
mm/day or in/day
Rain Sum Solar Rad
MJ/m^2
% Clear Day Red Flag
Abernathy 5ENE 11:59 PM 40 37 22 /16 91 / 15 11.2  (NW) 7.5 29.6 mph 213° @ 0318 PM 2.5 or 0.1 0.00 14.4 106 0
Adrian 6WSW 11:59 PM 40 37 22 /16 91 / 15 11.2  (SW) 7.4 30.8 mph 246° @ 1121 PM 2 or 0.08 0.01 14.6 112.3 0
Aiken 3WSW 11:59 PM 40 37 22 /16 91 / 15 11.6  (NW) 8.4 26.2 mph 230° @ 0214 PM 2.5 or 0.1 0.00 15.3 113.8 0
Amarillo 15NNW 11:59 PM 40 37 22 /16 91 / 15 10  (W) 6.3 28.7 mph 194° @ 0116 PM 2 or 0.08 0.00 13.6 106.2 0
Amarillo 7SSE 11:59 PM 40 37 22 /16 91 / 15 10.7  (W) 7 26.8 mph 231° @ 0308 PM 2.3 or 0.09 0.00 13.3 102.5 0
Amarillo 9NNE 11:59 PM 40 37 22 /16 91 / 15 8.8  (W) 6 27.8 mph 207° @ 1113 PM 2 or 0.08 0.01 14.5 112.6 0
Amherst 1NE 11:55 PM 40 37 22 /16 91 / 15 11.2  (NW) 7.5 29.8 mph 245° @ 0220 PM 2.5 or 0.1 0.00 14.2 105.2 0
Andrews 2E 11:55 PM 40 37 22 /16 91 / 15 8.4  (N) 4.6 23.6 mph 234° @ 0345 PM 2.5 or 0.1 0.00 3 105.3 0
Anton 6SSW 11:55 PM 40 37 22 /16 91 / 15 11.8  (W) 8.2 29 mph 216° @ 0235 PM 2.8 or 0.11 0.00 14.3 104.5 0
Aspermont 3NE 11:55 PM 40 37 22 /16 91 / 15 7.4  (NW) 4.2 24.9 mph 323° @ 1210 AM 2.3 or 0.09 0.00 14.1 102.4 0
Big Bend NP - Castolon 11:59 PM 40 37 22 /16 91 / 15 4.3  (NW) 3.1 14.4 mph 295° @ 1206 AM 2.5 or 0.1 0.00 16.3 103.9 0
Big Bend NP - Persimmon Gap 11:59 PM 40 37 22 /16 91 / 15 5.6  (N) 4.3 18.1 mph 19° @ 0957 AM 2.8 or 0.11 0.00 16.2 104.7 0
Big Lake 1WNW 11:59 PM 40 37 22 /16 91 / 15 6.5  (S) 4.4 17.3 mph 337° @ 1255 AM 2.3 or 0.09 0.00 16.2 110 0
Bootleg 11WNW 11:59 PM 40 37 22 /16 91 / 15 14.5  (NW) 9.9 34 mph 256° @ 0340 PM 2.8 or 0.11 0.00 12.4 93.9 0
Borger 7E 11:59 PM 40 37 22 /16 91 / 15 11.3  (NW) 8 27.4 mph 202° @ 0238 PM 2.3 or 0.09 0.00 15.7 123.4 0
Boys Ranch 1WSW 11:59 PM 40 37 22 /16 91 / 15 4.5  (W) 3.3 21.5 mph 232° @ 0152 PM 1.3 or 0.05 0.00 13.2 103.2 0
Brownfield 2S 11:59 PM 40 37 22 /16 91 / 15 11  (NW) 7.2 28.5 mph 222° @ 0149 PM 2.5 or 0.1 0.00 14.3 102.9 0
Canadian 6E 11:59 PM 40 37 22 /16 91 / 15 9.7  (W) 6.4 24.6 mph 156° @ 1037 PM 2 or 0.08 0.00 13.9 111.4 0
Caprock Canyons State Park 11:59 PM 40 37 22 /16 91 / 15 10.7  (NW) 7.4 28.3 mph 327° @ 0124 AM 2.8 or 0.11 0.00 14 105.4 0
Childress 2NNE 11:55 PM 40 37 22 /16 91 / 15 10.5  (NW) 7.3 27 mph 307° @ 1205 AM 2.5 or 0.1 0.00 13.7 104.5 0
Clarendon 2WSW 11:55 PM 40 37 22 /16 91 / 15 10.9  (W) 7.5 28.3 mph 191° @ 0145 PM 2.5 or 0.1 0.00 13.7 105.1 0
Claude 12SW 11:59 PM 40 37 22 /16 91 / 15 10.1  (W) 7.3 25.3 mph 207° @ 0355 PM 2.3 or 0.09 0.00 15 114.6 0
Clyde 2WNW 11:59 PM 40 37 22 /16 91 / 15 7.3  (NW) 5.1 20.6 mph 326° @ 1207 AM 2.3 or 0.09 0.00 15.1 107.2 0
Colorado City 5NW 11:59 PM 40 37 22 /16 91 / 15 6.1  (N) 3.6 15.9 mph 339° @ 1210 AM 2 or 0.08 0.00 14.8 105.1 0
Comanche Springs 11:59 PM 40 37 22 /16 91 / 15 6.4  (NW) 4 23 mph 319° @ 0306 AM 2 or 0.08 0.00 14.9 111.8 0
Coyanosa 2N 11:59 PM 40 37 22 /16 91 / 15 4.4  (W) 2 14.2 mph 168° @ 1117 PM 2 or 0.08 0.00 15.7 106.9 0
Crane 1NNW 11:59 PM 40 37 22 /16 91 / 15 6.8  (NE) 4.2 23.3 mph 178° @ 1018 PM 2.3 or 0.09 0.00 16.3 111 0
Crowell 1E 11:59 PM 40 37 22 /16 91 / 15 8.8  (NW) 6.8 23.5 mph 323° @ 0338 AM 2.3 or 0.09 0.00 14.6 109.3 0
Dell City 11:59 PM 40 37 22 /16 91 / 15 5.2  (NW) 3.5 27.3 mph 267° @ 0216 PM 2 or 0.08 0.00 14.8 102 0
Denver City 7WNW 11:55 PM 40 37 22 /16 91 / 15 10.5  (N) 6.6 25.4 mph 223° @ 0345 PM 2.5 or 0.1 0.00 15.6 111.4 0
Dimmitt 2NE 11:55 PM 40 37 22 /16 91 / 15 14  (NW) 10.4 32.3 mph 220° @ 1245 PM 2.5 or 0.1 0.00 14.1 106.1 0
Doole 3WNW 11:59 PM 40 37 22 /16 91 / 15 5.8  (W) 4.1 30.8 mph 333° @ 0208 AM 2.3 or 0.09 0.00 15.8 109.1 0
Dora NM 2SW 11:55 PM 40 37 22 /16 91 / 15 12.9  (NW) 8.1 34 mph 243° @ 1155 AM 2.3 or 0.09 0.00 13.2 96.6 0
Dozier 3W 11:59 PM 40 37 22 /16 91 / 15 9.3  (W) 6.7 25.9 mph 321° @ 0628 AM 2.3 or 0.09 0.00 13.9 107.9 0
Earth 9WSW 11:59 PM 40 37 22 /16 91 / 15 12.6  (W) 8.3 32.7 mph 228° @ 0253 PM 2.8 or 0.11 0.00 14.4 106.7 0
Endee NM 2SW 11:59 PM 40 37 22 /16 91 / 15 8.5  (SW) 5.5 26.2 mph 237° @ 1153 PM 2 or 0.08 0.01 13.7 104.7 0
Estelline 3SSE 11:59 PM 40 37 22 /16 91 / 15 9.4  (W) 6.1 23 mph 291° @ 0116 AM 2.3 or 0.09 0.00 14 106.7 0
Floydada 2NNE 11:55 PM 40 37 22 /16 91 / 15 10.9  (NW) 6.9 26.2 mph 216° @ 0420 PM 2.5 or 0.1 0.00 14.2 105.1 0
Fluvanna 3WNW 11:55 PM 40 37 22 /16 91 / 15 9.4  (N) 6.8 31 mph 347° @ 1215 AM 2.3 or 0.09 0.00 14.1 100.9 0
Fort Chadbourne 11:59 PM 40 37 22 /16 91 / 15 4  (N) 2.3 17.8 mph 332° @ 1232 AM 1.5 or 0.06 0.00 14 97.9 0
Fort Lancaster 11:59 PM 40 37 22 /16 91 / 15 5.2  (NW) 3.1 23.1 mph 355° @ 0241 AM 2.3 or 0.09 0.00 15.6 104.3 0
Fort Lewis CO 11:59 PM 40 37 22 /16 91 / 15 6.8  (NE) 4.1 18.1 mph 217° @ 0221 PM 1 or 0.04 0.00 13.8 111.7 0
Fort McKavett 11:59 PM 40 37 22 /16 91 / 15 3.3  (NW) 1.5 21.3 mph 356° @ 0238 AM 1.8 or 0.07 0.00 15.8 106.4 0
Friona 2NE 11:55 PM 40 37 22 /16 91 / 15 12.8  (NW) 9 32.7 mph 231° @ 1235 PM 2.5 or 0.1 0.00 14.8 111.6 0
Fritch 1WNW 11:59 PM 40 37 22 /16 91 / 15 9  (NW) 7 27 mph 196° @ 0210 PM 2 or 0.08 0.00 13.7 107.7 0
Gail 2ESE 11:59 PM 40 37 22 /16 91 / 15 6.7  (N) 3.1 20.8 mph 342° @ 1211 AM 2 or 0.08 0.00 15.1 107.9 0
Goodlett 3W 11:55 PM 40 37 22 /16 91 / 15 9.5  (NW) 6.9 22.7 mph 295° @ 1215 AM 2.3 or 0.09 0.00 15 113.7 0
Goodnight 11:59 PM 40 37 22 /16 91 / 15 11.9  (W) 8 27.3 mph 199° @ 0347 PM 2.5 or 0.1 0.00 13.8 106.2 0
Graham 5SSW 11:59 PM 40 37 22 /16 91 / 15 9.3  (NW) 6.1 27.4 mph 344° @ 0112 AM 2.3 or 0.09 0.00 15.3 110.1 0
Guadalupe Mtns Natl Park 11:59 PM 40 37 22 /16 91 / 15 17.2  (N) 12.8 60.9 mph 265° @ 1055 PM 3.6 or 0.14 0.00 14.3 96.9 0
Guthrie 10WSW 11:55 PM 40 37 22 /16 91 / 15 8.2  (NW) 5.2 18.6 mph 225° @ 0205 PM 2.5 or 0.1 0.00 14.1 103.6 0
Hackberry 2SSE 11:59 PM 40 37 22 /16 91 / 15 10  (NW) 7.2 20.6 mph 311° @ 0347 AM 2.5 or 0.1 0.00 15.6 116.7 0
Happy 1E 11:59 PM 40 37 22 /16 91 / 15 13.5  (W) 10.3 32.4 mph 219° @ 0209 PM 2.8 or 0.11 0.00 14.8 112.2 0
Hart 3N 11:55 PM 40 37 22 /16 91 / 15 11.9  (NW) 8 29.9 mph 230° @ 0230 PM 2.5 or 0.1 0.00 14.5 108.4 0
Haskell 1NW 11:55 PM 40 37 22 /16 91 / 15 7.5  (NW) 5.6 26.2 mph 329° @ 1205 AM 2 or 0.08 0.00 14 101.8 0
Hefner 1SW 11:59 PM 40 37 22 /16 91 / 15 9.2  (NW) 6.6 26.1 mph 309° @ 1254 AM 2.3 or 0.09 0.00 14.6 107.6 0
Hereford 2NW 11:55 PM 40 37 22 /16 91 / 15 13  (NW) 9.5 33.7 mph 241° @ 0135 PM 2.5 or 0.1 0.00 14 106.5 0
Hobbs NM 5NW 11:59 PM 40 37 22 /16 91 / 15 8.6  (NE) 6.1 28.6 mph 205° @ 0301 PM 2.3 or 0.09 0.00 15.7 111.1 0
Jayton 1SSE 11:55 PM 40 37 22 /16 91 / 15 7.3  (NW) 4.9 21.1 mph 319° @ 1230 AM 2.3 or 0.09 0.00 14.5 105.3 0
Junction 1SSW 11:59 PM 40 37 22 /16 91 / 15 3.1  (SW) 2.2 18.1 mph 360° @ 0353 AM 1.8 or 0.07 0.00 13.3 88.5 0
Kent 9E 11:59 PM 40 37 22 /16 91 / 15 6.1  (SW) 3.8 28.9 mph 239° @ 0159 PM 2.3 or 0.09 0.00 15.8 105.7 3
Knox City 3NW 11:59 PM 40 37 22 /16 91 / 15 7.4  (NW) 4.4 23 mph 327° @ 0112 AM 2.3 or 0.09 0.00 15 110.8 0
Lake Alan Henry 1NW 11:59 PM 40 37 22 /16 91 / 15 6.7  (NW) 3.8 19.4 mph 221° @ 0254 PM 2 or 0.08 0.00 14.4 104.3 0
Lake McClellan 2NW 11:59 PM 40 37 22 /16 91 / 15 12  (W) 9.2 25.7 mph 323° @ 0707 AM 2.3 or 0.09 0.00 14 108.7 0
Lamesa 2SE 11:55 PM 40 37 22 /16 91 / 15 8.2  (NW) 4.6 24.7 mph 212° @ 0415 PM 2.3 or 0.09 0.00 15.6 110.9 0
Lesley 2S 11:59 PM 40 37 22 /16 91 / 15 9  (NW) 6.1 25.4 mph 296° @ 0114 AM 2.5 or 0.1 0.00 15.2 116.1 0
Levelland 4S 11:59 PM 40 37 22 /16 91 / 15 10.9  (NW) 7.8 29.6 mph 229° @ 0332 PM 2.5 or 0.1 0.00 14.8 107.4 0
Lomax 1SSE 11:59 PM 40 37 22 /16 91 / 15 6.4  (N) 3.9 17.7 mph 341° @ 1205 AM 2.3 or 0.09 0.00 15.6 109.2 0
Lubbock 3WNW TTU 11:55 PM 40 37 22 /16 91 / 15 9  (NW) 4.7 24.7 mph 339° @ 0220 AM 2.3 or 0.09 0.00 14.8 108.4 0
McAdoo 3NNW 11:59 PM 40 37 22 /16 91 / 15 11.3  (NW) 7.6 25.2 mph 215° @ 0404 PM 2.5 or 0.1 0.00 14.6 107.7 0
McCamey 1SSW 11:59 PM 40 37 22 /16 91 / 15 5.6  (W) 4.2 17.5 mph 29° @ 0118 AM 2.3 or 0.09 0.00 14 94.7 0
McLean 1E 11:55 PM 40 37 22 /16 91 / 15 12.4  (NW) 9.7 28.1 mph 302° @ 0115 AM 2.5 or 0.1 0.00 15.1 117.6 0
Memphis 1NE 11:55 PM 40 37 22 /16 91 / 15 7.1  (W) 5.2 21.8 mph 331° @ 0555 AM 2 or 0.08 0.00 2.5 95.4 0
Menard 2NW 11:59 PM 40 37 22 /16 91 / 15 2.9  (W) 2 20.1 mph 342° @ 0220 AM 1.5 or 0.06 0.00 14.2 95.8 0
Mertzon 3NNE 11:59 PM 40 37 22 /16 91 / 15 4.3  (SW) 2.3 17.5 mph 335° @ 0134 AM 2 or 0.08 0.00 15.1 103.1 0
Morton 1ENE 11:55 PM 40 37 22 /16 91 / 15 10.1  (NW) 6.3 27.6 mph 232° @ 0240 PM 2.5 or 0.1 0.00 14.3 104.7 0
Muleshoe 2SSW 11:55 PM 40 37 22 /16 91 / 15 11.8  (W) 8 31.3 mph 249° @ 0155 PM 2.5 or 0.1 0.00 15.5 114.9 0
New Home 11:59 PM 40 37 22 /16 91 / 15 9.5  (NW) 5.8 24.6 mph 226° @ 0318 PM 2.3 or 0.09 0.00 14.3 103.8 0
Northfield 1S 11:55 PM 40 37 22 /16 91 / 15 9.7  (NW) 6.2 22.6 mph 187° @ 1050 PM 2.8 or 0.11 0.00 13.7 103.2 0
O'Donnell 1N 11:55 PM 40 37 22 /16 91 / 15 8.9  (NW) 4.8 25.9 mph 336° @ 0100 AM 2.3 or 0.09 0.00 12.8 91.4 0
Odell 4ENE 11:59 PM 40 37 22 /16 91 / 15 9.9  (NW) 6.7 24.6 mph 308° @ 0413 AM 2.3 or 0.09 0.00 14 106.5 0
Olton 6S 11:55 PM 40 37 22 /16 91 / 15 12  (N) 8.1 29.1 mph 215° @ 0320 PM 2.5 or 0.1 0.00 14.5 107.8 0
Paducah 10SW 11:55 PM 40 37 22 /16 91 / 15 10.1  (NW) 5.7 25.1 mph 316° @ 1205 AM 2.8 or 0.11 0.00 13.3 98.8 0
Palo Duro 4E (JA Ranch) 11:59 PM 40 37 22 /16 91 / 15 8.5  (W) 6 24.7 mph 307° @ 0122 AM 2.3 or 0.09 0.00 14.3 109.4 0
Palo Duro Canyon SP Floor 11:59 PM 40 37 22 /16 91 / 15 5.4  (NW) 2.4 21.3 mph 322° @ 0157 AM 1.8 or 0.07 0.00 13.4 102.7 0
Palo Duro Canyon State Park Rim 11:59 PM 40 37 22 /16 91 / 15 10.9  (W) 6.4 29.8 mph 211° @ 1040 PM 2.3 or 0.09 0.00 14.8 113.7 0
Palo Duro Reservoir 1NW 11:59 PM 40 37 22 /16 91 / 15 10.9  (NW) 7.6 26.3 mph 307° @ 0104 AM 2 or 0.08 0.00 13 105.5 0
Pampa 2E 11:55 PM 40 37 22 /16 91 / 15 11.3  (NW) 8.3 24.6 mph 281° @ 0120 AM 2 or 0.08 0.00 13 101.6 0
Panhandle 1SSW 11:59 PM 40 37 22 /16 91 / 15 10.9  (W) 8 29.8 mph 200° @ 0241 PM 2 or 0.08 0.00 14.1 109.3 0
Plains 3N 11:55 PM 40 37 22 /16 91 / 15 10.4  (NW) 7.3 28.5 mph 345° @ 1245 AM 2.3 or 0.09 0.00 15.2 109 0
Plainview 1S 11:59 PM 40 37 22 /16 91 / 15 10.8  (NW) 7.6 32.9 mph 208° @ 0235 PM 2.5 or 0.1 0.00 15.1 112.1 0
Post 1NE 11:59 PM 40 37 22 /16 91 / 15 8.4  (NW) 4.7 25.2 mph 333° @ 0141 AM 2.3 or 0.09 0.00 14.5 105.1 0
Ralls 1SE 11:55 PM 40 37 22 /16 91 / 15 10.2  (NW) 7.1 27.2 mph 214° @ 0325 PM 2.5 or 0.1 0.00 2.9 105.7 0
Reese Center 11:59 PM 40 37 22 /16 91 / 15 11.4  (NW) 7.3 31.8 mph 343° @ 0215 AM 2.5 or 0.1 0.00 14.4 105.1 0
Roaring Springs 3N 11:55 PM 40 37 22 /16 91 / 15 10.9  (NW) 7.4 29 mph 307° @ 0300 AM 2.5 or 0.1 0.00 2.6 97.4 0
Romero 11SSW 11:59 PM 40 37 22 /16 91 / 15 5.8  (W) 3.9 16.3 mph 228° @ 0300 PM 1.3 or 0.05 0.00 13 101.2 0
Rotan 5W 11:59 PM 40 37 22 /16 91 / 15 7.8  (NW) 4.6 17.5 mph 208° @ 0226 PM 2.3 or 0.09 0.00 13.9 99.6 0
San Angelo 7NW 11:55 PM 40 37 22 /16 91 / 15 5.5  (NW) 3.4 21.4 mph 331° @ 1245 AM 2 or 0.08 0.00 15.4 106.2 0
Seagraves 1SW 11:55 PM 40 37 22 /16 91 / 15 9.7  (N) 5.5 24.3 mph 214° @ 0345 PM 2.5 or 0.1 0.00 12.8 91.4 0
Segovia 7SSW 11:59 PM 40 37 22 /16 91 / 15 5.4  (N) 3.4 22.2 mph 12° @ 0412 AM 2.3 or 0.09 0.00 15 99.4 0
Seminole 2NNE 11:55 PM 40 37 22 /16 91 / 15 8.8  (N) 5.3 22.1 mph 207° @ 0400 PM 2.3 or 0.09 0.00 14.9 105.4 0
Seymour 3NW 11:55 PM 40 37 22 /16 91 / 15 7.6  (NW) 5.5 29.1 mph 302° @ 1210 AM 2 or 0.08 0.00 12.5 92.9 0
Sierra Blanca 1SSE 11:59 PM 40 37 22 /16 91 / 15 5.6  (N) 4.3 20.6 mph 206° @ 1228 PM 2.3 or 0.09 0.00 14.1 94.3 0
Silverton 7ESE 11:55 PM 40 37 22 /16 91 / 15 11.7  (NW) 8.1 27 mph 295° @ 0140 AM 2.5 or 0.1 0.00 13.8 103.5 0
Slaton 2NE 11:59 PM 40 37 22 /16 91 / 15 11.7  (NW) 8.1 35.1 mph 337° @ 0147 AM 2.5 or 0.1 0.00 15.4 111.9 0
Smyer 11:59 PM 40 37 22 /16 91 / 15 10.7  (NW) 7.9 27.9 mph 228° @ 0226 PM 2.5 or 0.1 0.00 15 109.7 0
Snyder 3E 11:55 PM 40 37 22 /16 91 / 15 7.2  (N) 2.9 20.3 mph 339° @ 1205 AM 2 or 0.08 0.00 12.9 92.2 0
Snyder 3SSW 11:59 PM 40 37 22 /16 91 / 15 7.6  (NW) 4.8 18.3 mph 357° @ 1223 AM 2 or 0.08 0.00 14.8 105.5 0
South Plains 3ENE 11:59 PM 40 37 22 /16 91 / 15 9.6  (NW) 6.6 25.4 mph 200° @ 0155 PM 2.3 or 0.09 0.00 14.4 107.2 0
Spur 1W 11:55 PM 40 37 22 /16 91 / 15 7.4  (NW) 4.5 24.6 mph 334° @ 0210 AM 2 or 0.08 0.00 14.6 107 0
St. Lawrence 5SW 11:55 PM 40 37 22 /16 91 / 15 7.7  (N) 5.1 24.2 mph 344° @ 1205 AM 2.5 or 0.1 0.00 15.4 105.8 0
Stamford 5ESE 11:59 PM 40 37 22 /16 91 / 15 7.6  (NW) 5 25.2 mph 329° @ 0132 AM 2.3 or 0.09 0.00 14.8 107.3 0
Sterling City 4WSW 11:59 PM 40 37 22 /16 91 / 15 4  (NW) 1.9 22.7 mph 333° @ 1202 AM 1.8 or 0.07 0.00 12.4 85.7 0
Stinnett 1NNW 11:59 PM 40 37 22 /16 91 / 15 10.2  (W) 6.6 24 mph 206° @ 0327 PM 2 or 0.08 0.01 13.9 110 0
Stratford 4WNW 11:59 PM 40 37 22 /16 91 / 15 10  (NW) 6 23 mph 190° @ 0212 PM 1.5 or 0.06 0.00 13.4 107.7 0
Sundown 8WSW 11:55 PM 40 37 22 /16 91 / 15 11.2  (NW) 6.4 28.3 mph 349° @ 0120 AM 2.5 or 0.1 0.01 12.7 92.1 0
Sweetwater 11SW 11:59 PM 40 37 22 /16 91 / 15 6.4  (N) 4 17.6 mph 142° @ 1043 PM 2 or 0.08 0.00 16.4 115.8 0
Tahoka 3NNE 11:59 PM 40 37 22 /16 91 / 15 9.2  (NW) 5.1 25.2 mph 336° @ 1247 AM 2.3 or 0.09 0.00 14.6 105.2 0
Tarzan 2WNW 11:59 PM 40 37 22 /16 91 / 15 7.8  (N) 4.7 20.1 mph 339° @ 1221 AM 2.3 or 0.09 0.00 15.2 106.9 0
Tatum NM 2SW 11:55 PM 40 37 22 /16 91 / 15 12.2  (N) 6 25.7 mph 223° @ 0210 PM 2.5 or 0.1 0.00 15.7 112.3 0
Throckmorton 1SW 11:59 PM 40 37 22 /16 91 / 15 7.7  (NW) 3.3 22.4 mph 315° @ 1204 AM 2.3 or 0.09 0.00 15.2 111.2 0
Truscott 2SE 11:59 PM 40 37 22 /16 91 / 15 9.2  (NW) 6.4 24.7 mph 310° @ 1221 AM 2.5 or 0.1 0.00 13.8 102.6 0
Tulia 2ENE 11:55 PM 40 37 22 /16 91 / 15 12.2  (NW) 8.5 30.2 mph 239° @ 0355 PM 2.8 or 0.11 0.00 12.5 93.9 0
Turkey 2WSW 11:55 PM 40 37 22 /16 91 / 15 11  (NW) 7.9 26.4 mph 299° @ 1240 AM 2.8 or 0.11 0.00 12.4 93.9 0
Umbarger 3NNE 11:59 PM 40 37 22 /16 91 / 15 12.7  (W) 7.9 30.5 mph 228° @ 0158 PM 2.3 or 0.09 0.00 13.7 104.4 0
Van Horn 3ENE 11:59 PM 40 37 22 /16 91 / 15 8.1  (SW) 4.7 25.2 mph 260° @ 0209 PM 3 or 0.12 0.00 16.7 111.8 0
Vega 4E 11:59 PM 40 37 22 /16 91 / 15 9.8  (W) 6.5 30.7 mph 253° @ 0157 PM 2 or 0.08 0.01 14.9 115 0
Vigo Park 11:59 PM 40 37 22 /16 91 / 15 11.5  (W) 7.6 28 mph 208° @ 0213 PM 2.5 or 0.1 0.00 12.8 97.2 0
Wall 2E 11:59 PM 40 37 22 /16 91 / 15 6.1  (W) 3.8 14.6 mph 332° @ 1232 AM 2 or 0.08 0.00 15.2 104.1 0
Weinert 2NNE 11:59 PM 40 37 22 /16 91 / 15 7.8  (NW) 5.6 26.5 mph 326° @ 1226 AM 2.3 or 0.09 0.00 13.6 100.1 0
Welch 11:59 PM 40 37 22 /16 91 / 15 9.2  (N) 6.2 24 mph 217° @ 0347 PM 2.3 or 0.09 0.00 15.3 109.4 0
White River Lake 6NW 11:59 PM 40 37 22 /16 91 / 15 10.8  (NW) 7.1 34 mph 323° @ 0150 AM 2.5 or 0.1 0.00 15.3 111.8 0
Wolfforth 6SSW 11:59 PM 40 37 22 /16 91 / 15 10.5  (NW) 6.7 29.6 mph 344° @ 0139 AM 2.5 or 0.1 0.00 15 109 0

WestTexas Mesonet Home    Site Map/Menu  National Weather Service Lubbock   Soil Data   Latest Observation Page   Previous  Date